sensor_id;sensor_type;location;lat;lon;timestamp;P1;durP1;ratioP1;P2;durP2;ratioP2
72645;SDS011;60687;53.876;10.674;2023-11-18T00:04:47;11.77;;;5.33;;
72645;SDS011;60687;53.876;10.674;2023-11-18T00:14:50;12.37;;;6.33;;
72645;SDS011;60687;53.876;10.674;2023-11-18T00:24:54;13.00;;;6.60;;
72645;SDS011;60687;53.876;10.674;2023-11-18T00:34:57;12.88;;;6.50;;
72645;SDS011;60687;53.876;10.674;2023-11-18T00:45:01;12.80;;;6.30;;
72645;SDS011;60687;53.876;10.674;2023-11-18T00:55:06;13.77;;;7.10;;
72645;SDS011;60687;53.876;10.674;2023-11-18T01:05:12;15.38;;;7.22;;
72645;SDS011;60687;53.876;10.674;2023-11-18T01:15:15;13.00;;;6.40;;
72645;SDS011;60687;53.876;10.674;2023-11-18T01:25:19;11.73;;;5.87;;
72645;SDS011;60687;53.876;10.674;2023-11-18T01:35:23;13.43;;;6.38;;
72645;SDS011;60687;53.876;10.674;2023-11-18T01:45:29;12.00;;;5.60;;
72645;SDS011;60687;53.876;10.674;2023-11-18T01:55:32;12.80;;;6.13;;
72645;SDS011;60687;53.876;10.674;2023-11-18T02:05:36;12.82;;;6.32;;
72645;SDS011;60687;53.876;10.674;2023-11-18T02:15:39;13.25;;;6.18;;
72645;SDS011;60687;53.876;10.674;2023-11-18T02:25:45;13.27;;;6.53;;
72645;SDS011;60687;53.876;10.674;2023-11-18T02:35:51;13.23;;;6.33;;
72645;SDS011;60687;53.876;10.674;2023-11-18T02:45:58;12.93;;;5.90;;
72645;SDS011;60687;53.876;10.674;2023-11-18T02:56:01;15.43;;;7.17;;
72645;SDS011;60687;53.876;10.674;2023-11-18T03:06:06;14.47;;;6.10;;
72645;SDS011;60687;53.876;10.674;2023-11-18T03:16:11;15.00;;;6.97;;
72645;SDS011;60687;53.876;10.674;2023-11-18T03:26:16;15.77;;;6.77;;
72645;SDS011;60687;53.876;10.674;2023-11-18T03:36:18;14.23;;;7.30;;
72645;SDS011;60687;53.876;10.674;2023-11-18T03:46:22;15.25;;;7.45;;
72645;SDS011;60687;53.876;10.674;2023-11-18T03:56:25;16.00;;;7.28;;
72645;SDS011;60687;53.876;10.674;2023-11-18T04:06:30;16.10;;;8.90;;
72645;SDS011;60687;53.876;10.674;2023-11-18T04:16:32;17.23;;;8.40;;
72645;SDS011;60687;53.876;10.674;2023-11-18T04:26:36;16.05;;;7.68;;
72645;SDS011;60687;53.876;10.674;2023-11-18T04:36:40;18.30;;;8.37;;
72645;SDS011;60687;53.876;10.674;2023-11-18T04:46:44;18.27;;;8.63;;
72645;SDS011;60687;53.876;10.674;2023-11-18T04:56:47;16.42;;;8.13;;
72645;SDS011;60687;53.876;10.674;2023-11-18T05:06:51;15.93;;;7.30;;
72645;SDS011;60687;53.876;10.674;2023-11-18T05:16:54;14.53;;;6.97;;
72645;SDS011;60687;53.876;10.674;2023-11-18T05:26:58;14.38;;;6.93;;
72645;SDS011;60687;53.876;10.674;2023-11-18T05:37:03;17.17;;;7.80;;
72645;SDS011;60687;53.876;10.674;2023-11-18T05:47:07;13.80;;;6.53;;
72645;SDS011;60687;53.876;10.674;2023-11-18T05:57:12;16.07;;;6.80;;
72645;SDS011;60687;53.876;10.674;2023-11-18T06:07:15;13.77;;;6.50;;
72645;SDS011;60687;53.876;10.674;2023-11-18T06:17:19;13.73;;;7.07;;
72645;SDS011;60687;53.876;10.674;2023-11-18T06:27:23;14.50;;;6.57;;
72645;SDS011;60687;53.876;10.674;2023-11-18T06:37:25;14.48;;;6.68;;
72645;SDS011;60687;53.876;10.674;2023-11-18T06:47:35;12.43;;;6.20;;
72645;SDS011;60687;53.876;10.674;2023-11-18T06:57:38;15.03;;;7.30;;
72645;SDS011;60687;53.876;10.674;2023-11-18T07:07:43;15.70;;;7.90;;
72645;SDS011;60687;53.876;10.674;2023-11-18T07:17:46;16.98;;;8.48;;
72645;SDS011;60687;53.876;10.674;2023-11-18T07:27:50;15.33;;;7.83;;
72645;SDS011;60687;53.876;10.674;2023-11-18T07:37:53;14.37;;;6.57;;
72645;SDS011;60687;53.876;10.674;2023-11-18T07:47:59;16.15;;;8.07;;
72645;SDS011;60687;53.876;10.674;2023-11-18T07:58:02;15.80;;;7.77;;
72645;SDS011;60687;53.876;10.674;2023-11-18T08:08:06;16.53;;;8.23;;
72645;SDS011;60687;53.876;10.674;2023-11-18T08:18:11;15.18;;;7.28;;
72645;SDS011;60687;53.876;10.674;2023-11-18T08:28:15;17.67;;;7.97;;
72645;SDS011;60687;53.876;10.674;2023-11-18T08:38:17;16.67;;;7.73;;
72645;SDS011;60687;53.876;10.674;2023-11-18T08:48:21;12.77;;;6.10;;
72645;SDS011;60687;53.876;10.674;2023-11-18T08:58:24;14.00;;;6.80;;
72645;SDS011;60687;53.876;10.674;2023-11-18T09:08:31;15.03;;;6.63;;
72645;SDS011;60687;53.876;10.674;2023-11-18T09:18:37;14.30;;;7.90;;
72645;SDS011;60687;53.876;10.674;2023-11-18T09:28:43;22.45;;;10.13;;
72645;SDS011;60687;53.876;10.674;2023-11-18T09:38:46;16.00;;;7.10;;
72645;SDS011;60687;53.876;10.674;2023-11-18T09:48:50;15.93;;;7.50;;
72645;SDS011;60687;53.876;10.674;2023-11-18T09:59:01;18.30;;;8.38;;
72645;SDS011;60687;53.876;10.674;2023-11-18T10:09:18;14.27;;;7.00;;
72645;SDS011;60687;53.876;10.674;2023-11-18T10:19:39;15.83;;;8.20;;
72645;SDS011;60687;53.876;10.674;2023-11-18T10:29:56;15.90;;;8.15;;
72645;SDS011;60687;53.876;10.674;2023-11-18T10:40:03;11.65;;;6.30;;
72645;SDS011;60687;53.876;10.674;2023-11-18T10:50:09;11.47;;;5.87;;
72645;SDS011;60687;53.876;10.674;2023-11-18T11:00:12;10.23;;;4.67;;
72645;SDS011;60687;53.876;10.674;2023-11-18T11:10:16;9.40;;;4.60;;
72645;SDS011;60687;53.876;10.674;2023-11-18T11:20:25;8.67;;;4.40;;
72645;SDS011;60687;53.876;10.674;2023-11-18T11:30:37;7.47;;;3.03;;
72645;SDS011;60687;53.876;10.674;2023-11-18T11:40:45;7.57;;;3.40;;
72645;SDS011;60687;53.876;10.674;2023-11-18T11:51:00;7.60;;;3.43;;
72645;SDS011;60687;53.876;10.674;2023-11-18T12:01:15;7.50;;;3.30;;
72645;SDS011;60687;53.876;10.674;2023-11-18T12:11:25;6.47;;;2.38;;
72645;SDS011;60687;53.876;10.674;2023-11-18T12:31:57;6.37;;;2.40;;
72645;SDS011;60687;53.876;10.674;2023-11-18T12:42:03;5.63;;;2.07;;
72645;SDS011;60687;53.876;10.674;2023-11-18T12:52:13;6.50;;;2.72;;
72645;SDS011;60687;53.876;10.674;2023-11-18T13:02:19;6.90;;;2.47;;
72645;SDS011;60687;53.876;10.674;2023-11-18T13:12:22;7.00;;;2.67;;
72645;SDS011;60687;53.876;10.674;2023-11-18T13:22:29;7.68;;;2.85;;
72645;SDS011;60687;53.876;10.674;2023-11-18T13:32:34;7.23;;;2.80;;
72645;SDS011;60687;53.876;10.674;2023-11-18T13:42:36;7.13;;;2.97;;
72645;SDS011;60687;53.876;10.674;2023-11-18T13:52:41;6.60;;;2.95;;
72645;SDS011;60687;53.876;10.674;2023-11-18T14:02:44;7.03;;;2.90;;
72645;SDS011;60687;53.876;10.674;2023-11-18T14:13:02;6.50;;;2.27;;
72645;SDS011;60687;53.876;10.674;2023-11-18T14:23:06;7.23;;;3.00;;
72645;SDS011;60687;53.876;10.674;2023-11-18T14:33:10;7.63;;;3.17;;
72645;SDS011;60687;53.876;10.674;2023-11-18T14:43:13;6.87;;;2.80;;
72645;SDS011;60687;53.876;10.674;2023-11-18T14:53:17;6.73;;;2.40;;
72645;SDS011;60687;53.876;10.674;2023-11-18T15:03:21;7.60;;;3.30;;
72645;SDS011;60687;53.876;10.674;2023-11-18T15:13:25;8.03;;;2.70;;
72645;SDS011;60687;53.876;10.674;2023-11-18T15:23:27;8.67;;;3.23;;
72645;SDS011;60687;53.876;10.674;2023-11-18T15:33:31;8.07;;;3.67;;
72645;SDS011;60687;53.876;10.674;2023-11-18T15:43:35;7.03;;;3.10;;
72645;SDS011;60687;53.876;10.674;2023-11-18T15:53:39;8.53;;;2.93;;
72645;SDS011;60687;53.876;10.674;2023-11-18T16:03:41;7.63;;;2.90;;
72645;SDS011;60687;53.876;10.674;2023-11-18T16:13:46;7.93;;;3.22;;
72645;SDS011;60687;53.876;10.674;2023-11-18T16:23:48;6.77;;;2.70;;
72645;SDS011;60687;53.876;10.674;2023-11-18T16:33:52;8.37;;;3.40;;
72645;SDS011;60687;53.876;10.674;2023-11-18T16:43:55;7.90;;;3.42;;
72645;SDS011;60687;53.876;10.674;2023-11-18T16:53:59;7.23;;;2.83;;
72645;SDS011;60687;53.876;10.674;2023-11-18T17:04:02;7.97;;;3.20;;
72645;SDS011;60687;53.876;10.674;2023-11-18T17:14:06;8.90;;;3.70;;
72645;SDS011;60687;53.876;10.674;2023-11-18T17:24:09;8.55;;;4.13;;
72645;SDS011;60687;53.876;10.674;2023-11-18T17:34:14;8.60;;;3.97;;
72645;SDS011;60687;53.876;10.674;2023-11-18T17:44:17;9.07;;;4.33;;
72645;SDS011;60687;53.876;10.674;2023-11-18T17:54:22;9.20;;;3.85;;
72645;SDS011;60687;53.876;10.674;2023-11-18T18:04:26;7.73;;;3.50;;
72645;SDS011;60687;53.876;10.674;2023-11-18T18:14:30;8.10;;;3.77;;
72645;SDS011;60687;53.876;10.674;2023-11-18T18:24:33;8.25;;;3.33;;
72645;SDS011;60687;53.876;10.674;2023-11-18T18:34:38;9.20;;;3.67;;
72645;SDS011;60687;53.876;10.674;2023-11-18T18:44:40;9.27;;;4.63;;
72645;SDS011;60687;53.876;10.674;2023-11-18T18:54:44;9.70;;;4.72;;
72645;SDS011;60687;53.876;10.674;2023-11-18T19:04:47;10.80;;;5.28;;
72645;SDS011;60687;53.876;10.674;2023-11-18T19:14:51;11.50;;;5.80;;
72645;SDS011;60687;53.876;10.674;2023-11-18T19:24:54;12.33;;;5.83;;
72645;SDS011;60687;53.876;10.674;2023-11-18T19:34:57;10.75;;;5.05;;
72645;SDS011;60687;53.876;10.674;2023-11-18T19:45:01;12.10;;;6.20;;
72645;SDS011;60687;53.876;10.674;2023-11-18T19:55:07;13.27;;;6.43;;
72645;SDS011;60687;53.876;10.674;2023-11-18T20:05:14;13.00;;;6.35;;
72645;SDS011;60687;53.876;10.674;2023-11-18T20:15:18;14.97;;;7.23;;
72645;SDS011;60687;53.876;10.674;2023-11-18T20:25:30;14.30;;;7.13;;
72645;SDS011;60687;53.876;10.674;2023-11-18T20:35:34;17.67;;;9.52;;
72645;SDS011;60687;53.876;10.674;2023-11-18T20:45:38;18.30;;;8.65;;
72645;SDS011;60687;53.876;10.674;2023-11-18T20:55:42;18.53;;;8.30;;
72645;SDS011;60687;53.876;10.674;2023-11-18T21:05:45;18.27;;;8.00;;
72645;SDS011;60687;53.876;10.674;2023-11-18T21:15:49;17.75;;;8.40;;
72645;SDS011;60687;53.876;10.674;2023-11-18T21:25:54;18.97;;;9.07;;
72645;SDS011;60687;53.876;10.674;2023-11-18T21:35:58;19.37;;;8.73;;
72645;SDS011;60687;53.876;10.674;2023-11-18T21:46:00;18.48;;;9.70;;
72645;SDS011;60687;53.876;10.674;2023-11-18T21:56:06;17.03;;;8.43;;
72645;SDS011;60687;53.876;10.674;2023-11-18T22:06:09;19.20;;;8.83;;
72645;SDS011;60687;53.876;10.674;2023-11-18T22:16:13;22.02;;;11.05;;
72645;SDS011;60687;53.876;10.674;2023-11-18T22:26:16;23.25;;;11.15;;
72645;SDS011;60687;53.876;10.674;2023-11-18T22:36:20;19.07;;;8.87;;
72645;SDS011;60687;53.876;10.674;2023-11-18T22:46:23;18.70;;;8.53;;
72645;SDS011;60687;53.876;10.674;2023-11-18T22:56:26;15.88;;;8.55;;
72645;SDS011;60687;53.876;10.674;2023-11-18T23:06:29;17.57;;;8.93;;
72645;SDS011;60687;53.876;10.674;2023-11-18T23:16:33;15.30;;;8.00;;
72645;SDS011;60687;53.876;10.674;2023-11-18T23:26:37;15.48;;;8.18;;
72645;SDS011;60687;53.876;10.674;2023-11-18T23:36:40;15.93;;;6.97;;
72645;SDS011;60687;53.876;10.674;2023-11-18T23:46:45;14.47;;;6.70;;
72645;SDS011;60687;53.876;10.674;2023-11-18T23:56:50;14.60;;;6.63;;
